Main page
METAR-TAF:

METAR-TAF

Airports :

Reus, Spain

Reus Airport

latitude: 41-09N, longitude: 001-10E, elevation: 71 m

Current weather observation

The report was made 20 minutes ago, at 11:30 UTC
Calm wind
Temperature 18°C
Humidity 34%
Pressure 1023 hPa
Visibility 10 km or more
no clouds below 1500 m and no cumulonimbus

METAR: LERS 201130Z 00000KT CAVOK 18/02 Q1023

Time: 12:50 (11:50 UTC)

Forecast

The report was made 3 hours and 50 minutes ago, at 08:00 UTC
Forecast valid from 20 at 09 UTC to 21 at 09 UTC
Wind 4 kt from variable directions
Visibility 10 km or more
no clouds below 1500 m and no cumulonimbus

TAF: LERS 200800Z 2009/2109 VRB04KT CAVOK TX19/2013Z TN04/2106Z

Weather observations and forecasts of more than 4000 airports (METAR and TAF reports).

The available stations are represented by yellow and red dots on the map.

Hover mouse over dot to see the name of the station.

Then click to see weather observations and forecasts.

To change the map : click on the green buttons with a black cross to zoom in, on the green button with a dash to zoom out, or on the green arrows for adjacent maps.


METAR-TAF: